Tiempo atmosférico en la estación meteorológica de Fuente Palmera, Córdoba (120 m.)



Fecha
DESCASC
Temp. máxima en grados centígrados (hora)
DESCASC
Temp. mínima en grados centígrados (hora)
DESCASC
Temp. media en grados centígrados
DESCASC
Racha de viento máxima en m/sg (hora)
DESCASC
Velocidad máxima media en intervalos de 10 minutos(hora)
DESCASC
Precipitaciones diarias en mm
DESCASC
Precipitaciones de 00:00 a 06:00 en mm
DESCASC
Precipitaciones de 06:00 a 12:00 en mm
DESCASC
Precipitaciones de 12:00 a 18:00 en mm
DESCASC
Precipitaciones de 18:00 a 24:00 en mm
DESCASC
26-11-2020 13.9 (15:10) 10.4 (23:30) 12.1 8.06 (00:50) 4.72 (00:50) 25.2 13.2 11.2 0.8 0
25-11-2020 17.3 (12:30) 11.4 (08:40) 14.3 21.94 (13:30) 8.89 (13:40) 21 0 0 14.2 6.8
24-11-2020 18 (15:40) 4.7 (08:00) 11.3 5.83 (06:30) 3.61 (03:10) 0 0 0 0 0
23-11-2020 17.8 (15:20) 5.2 (07:30) 11.5 5.83 (11:20) 3.89 (11:20) 0 0 0 0 0
22-11-2020 19.1 (15:10) 7.8 (00:00) 13.5 8.33 (11:10) 5.28 (11:10) 0 0 0 0 0
21-11-2020 20.7 (15:50) 7.5 (00:00) 14.1 6.94 (12:10) 4.44 (12:20) 0 0 0 0 0
20-11-2020 23.1 (15:40) 9.8 (00:00) 16.5 6.67 (15:40) 3.89 (15:40) 0.2 0 0.2 0 0
19-11-2020 24.1 (15:40) 10.5 (00:00) 17.3 3.61 (05:50) 3.06 (19:40) 0 0 0 0 0
18-11-2020 23.4 (16:20) 10.9 (00:00) 17.1 7.22 (12:40) 4.72 (12:20) 0 0 0 0 0
17-11-2020 22.8 (17:00) 11.7 (00:00) 17.2 7.22 (11:40) 4.44 (12:50) 0.2 0 0.2 0 0
16-11-2020 22.8 (16:00) 12.5 (00:00) 17.6 3.33 (23:40) 2.22 (23:20) 0 0 0 0 0
15-11-2020 22.6 (15:50) 15 (00:00) 18.8 6.11 (12:30) 4.17 (12:00) 0.2 0.2 0 0 0
14-11-2020 17.5 (16:20) 14.7 (00:00) 16.1 5.28 (14:50) 2.5 (14:50) 6.4 0 0.2 6.2 0
13-11-2020 21.3 (15:20) 9.2 (00:00) 15.2 6.67 (11:10) 4.17 (11:50) 0 0 0 0 0
12-11-2020 20.8 (15:20) 9.9 (00:00) 15.3 7.78 (11:40) 4.44 (11:30) 0 0 0 0 0
11-11-2020 21.2 (14:30) 9.5 (00:00) 15.4 5.83 (11:30) 3.89 (12:10) 0 0 0 0 0
10-11-2020 21.3 (15:40) 9 (00:00) 15.1 9.44 (13:40) 5.28 (13:40) 0.2 0 0.2 0 0
09-11-2020 20.4 (15:20) 12.2 (00:00) 16.3 3.89 (14:40) 1.94 (13:50) 0.2 0 0.2 0 0
08-11-2020 21.3 (15:00) 10.3 (00:00) 15.8 6.67 (10:40) 3.61 (10:40) 0.2 0.2 0 0 0
07-11-2020 20.5 (15:10) 11.8 (00:00) 16.2 14.44 (02:40) 6.39 (02:40) 9.4 9.4 0 0 0
06-11-2020 24.4 (15:20) 13.9 (00:00) 19.1 10.28 (21:40) 6.39 (21:50) 1.8 0 0 0 1.8
05-11-2020 16.4 (23:40) 13.7 (00:00) 15 7.78 (23:30) 4.72 (19:50) 43.4 10 6.4 27 0
04-11-2020 19.3 (15:30) 13.6 (00:00) 16.4 7.5 (10:20) 4.72 (10:20) 1.4 0.2 1 0.2 0
03-11-2020 24.1 (15:00) 11.6 (00:00) 17.9 6.67 (19:00) 3.89 (19:10) 0 0 0 0 0
02-11-2020 27.8 (16:40) 11 (00:00) 19.4 6.67 (12:00) 3.89 (12:00) 0 0 0 0 0
01-11-2020 27.6 (16:40) 11.3 (00:00) 19.5 4.72 (09:50) 2.78 (09:50) 0 0 0 0 0
31-10-2020 27.2 (16:40) 11.5 (00:00) 19.4 5.28 (11:00) 3.33 (11:00) 0 0 0 0 0
30-10-2020 26.6 (15:20) 10.8 (00:00) 18.7 7.22 (11:30) 4.72 (12:00) 0 0 0 0 0

Gráficas

Temp. máximas Temp. mínimas Temp. medias Precipitaciones Rachas de viento máximas Velocidades máximas media en intervalos de 10 minutos

Datos horarios

Fecha y hora oficial Temperatura (ºC) Velocidad del viento (km/h) Dirección del viento Racha (km/h) Dirección de racha Precipitación (mm) Presión (hPa) Tendencia (hPa) Humedad (%)
2020-11-28 23:00:00 12.4 10 Este 17 Este 0 -- -- 94
2020-11-28 22:00:00 12.6 10 Sudeste 15 Sudeste 0 -- -- 94
2020-11-28 21:00:00 12.6 7 Sudeste 10 Sudeste 0 -- -- 92
2020-11-28 20:00:00 12.8 6 Este 12 Este 0 -- -- 89
2020-11-28 19:00:00 12.9 4 Este 6 Este 0 -- -- 91
2020-11-28 18:00:00 13.5 2 Sur 5 Sudoeste 0 -- -- 83
2020-11-28 17:00:00 15.1 4 Sudoeste 10 Sur 0 -- -- 76
2020-11-28 16:00:00 15.6 5 Sur 14 Sudoeste 0 -- -- 73
2020-11-28 15:00:00 16.1 7 Sudoeste 14 Oeste 0 -- -- 72
2020-11-28 14:00:00 14.9 5 Sudoeste 13 Sur 0 -- -- 76
2020-11-28 13:00:00 14.1 4 Oeste 13 Sudoeste 0 -- -- 80
2020-11-28 12:00:00 13.7 4 Sudoeste 9 Oeste 0 -- -- 83
2020-11-28 11:00:00 13 2 Oeste 10 Oeste 0 -- -- 87
2020-11-28 10:00:00 11.6 5 Oeste 8 Oeste 0 -- -- 97
2020-11-28 09:00:00 11.1 0 Calma 5 Este 0 -- -- 99
2020-11-28 08:00:00 10.7 2 Noroeste 9 Oeste 0 -- -- 98
2020-11-28 07:00:00 11 2 Oeste 5 Noroeste 0 -- -- 98
2020-11-28 06:00:00 11 3 Noroeste 5 Noroeste 0 -- -- 98
2020-11-28 05:00:00 11.1 0 Calma 4 Sudeste 0 -- -- 98
2020-11-28 04:00:00 11.1 2 Sudeste 6 Sur 0 -- -- 97
2020-11-28 03:00:00 11.2 3 Sur 4 Sur 0 -- -- 96
2020-11-28 02:00:00 11.3 0 Calma 2 Sudeste 0 -- -- 96
2020-11-28 01:00:00 11.3 0 Calma 6 Sudoeste 0 -- -- 97
2020-11-28 00:00:00 11.2 3 Sudoeste 5 Sudoeste 0 -- -- 97
2020-11-27 23:00:00 11.1 0 Calma 5 Sudoeste 0 -- -- 97
2020-11-27 22:00:00 11.3 0 Calma 3 Este 0 -- -- 98
2020-11-27 21:00:00 11.2 0 Calma 4 Nordeste 0.2 -- -- 97
2020-11-27 20:00:00 11.3 0 Calma 4 Oeste 0 -- -- 96
2020-11-27 19:00:00 11.5 0 Calma 4 Sudoeste 0.2 -- -- 94
2020-11-27 18:00:00 11.6 0 Calma 9 Oeste 0 -- -- 93
2020-11-27 17:00:00 12.1 7 Oeste 9 Oeste 0 -- -- 90
2020-11-27 16:00:00 12.1 2 Noroeste 6 Oeste 0.2 -- -- 90
2020-11-27 15:00:00 12.1 4 Oeste 7 Oeste 0 -- -- 86
2020-11-27 14:00:00 12.4 5 Oeste 11 Oeste 0 -- -- 85
2020-11-27 13:00:00 12.1 5 Sudoeste 13 Sudoeste 0 -- -- 86
2020-11-27 12:00:00 11.4 6 Sudoeste 13 Sudoeste 0.2 -- -- 90
2020-11-27 11:00:00 11.5 5 Sudoeste 12 Sudoeste 0 -- -- 91
2020-11-27 10:00:00 10.7 5 Sudoeste 10 Sudoeste 0 -- -- 98
2020-11-27 09:00:00 9.8 2 Sudoeste 5 Sudoeste 0 -- -- 99
2020-11-27 08:00:00 9.3 0 Calma 4 Oeste 0 -- -- 99
2020-11-27 07:00:00 9.4 2 Sudoeste 3 Sudoeste 0.4 -- -- 99
2020-11-27 06:00:00 9.6 0 Calma 11 Nordeste 1.4 -- -- 99
2020-11-27 05:00:00 9.8 8 Nordeste 14 Nordeste 1.4 -- -- 98
2020-11-27 04:00:00 10 10 Este 16 Este 2 -- -- 97
2020-11-27 03:00:00 10.3 5 Nordeste 14 Nordeste 0.2 -- -- 96
2020-11-27 02:00:00 10.5 10 Este 23 Este 0 -- -- 94
2020-11-27 01:00:00 10.8 14 Este 24 Este 0 -- -- 94
2020-11-27 00:00:00 10.6 9 Este 15 Este 0 -- -- 95
2020-11-26 23:00:00 10.8 0 Calma 11 Sudoeste 0 -- -- 93
2020-11-26 22:00:00 11.4 8 Sur 15 Sur 0 -- -- 94
2020-11-26 21:00:00 11.4 6 Este 14 Este 0 -- -- 93
2020-11-26 20:00:00 11.3 9 Este 19 Este 0 -- -- 94
2020-11-26 19:00:00 11.4 6 Este 17 Este 0 -- -- 95
2020-11-26 18:00:00 12.1 10 Este 15 Este 0 -- -- 94
2020-11-26 17:00:00 12.7 8 Este 16 Este 0 -- -- 89
2020-11-26 16:00:00 13.3 7 Este 16 Este 0 -- -- 87
2020-11-26 15:00:00 13 8 Este 15 Este 0.6 -- -- 93
2020-11-26 14:00:00 12.4 7 Este 14 Sudeste 0 -- -- 91
2020-11-26 13:00:00 11.8 6 Este 12 Este 0.2 -- -- 95
2020-11-26 12:00:00 11.4 9 Nordeste 15 Este 1.4 -- -- 96
2020-11-26 11:00:00 11.7 10 Este 19 Este 1.6 -- -- 98
2020-11-26 10:00:00 11.5 10 Este 14 Este 1.4 -- -- 98
2020-11-26 09:00:00 11.4 8 Este 17 Este 1.6 -- -- 98
2020-11-26 08:00:00 11.6 4 Sudeste 17 Este 4 -- -- 97
2020-11-26 07:00:00 11.6 11 Sudeste 18 Este 1.2 -- -- 97
2020-11-26 06:00:00 11.6 10 Este 20 Este 1 -- -- 98
2020-11-26 05:00:00 11.6 6 Este 21 Este 2 -- -- 97
2020-11-26 04:00:00 11.7 13 Este 21 Sudeste 2.4 -- -- 97
2020-11-26 03:00:00 11.9 13 Sudeste 18 Sudeste 3 -- -- 97
2020-11-26 02:00:00 11.8 10 Este 24 Este 1.6 -- -- 97
2020-11-26 01:00:00 11.9 16 Este 29 Este 3.2 -- -- 97
2020-11-26 00:00:00 12 8 Este 21 Este 1.2 -- -- 97
2020-11-25 23:00:00 12 8 Este 15 Este 1.2 -- -- 97
2020-11-25 22:00:00 12 7 Este 13 Sudeste 2.4 -- -- 96
2020-11-25 21:00:00 12.1 6 Este 13 Este 0.4 -- -- 97
2020-11-25 20:00:00 12.1 5 Este 14 Nordeste 0 -- -- 97
2020-11-25 19:00:00 12.4 7 Nordeste 17 Sur 1.6 -- -- 96
2020-11-25 18:00:00 13 10 Sur 20 Sur 3.2 -- -- 95
2020-11-25 17:00:00 13.1 3 Sudoeste 9 Sur 1.2 -- -- 94
2020-11-25 16:00:00 13.3 4 Sudoeste 14 Oeste 0.4 -- -- 92
2020-11-25 15:00:00 12.7 5 Sudoeste 28 Oeste 4.2 -- -- 94
2020-11-25 14:00:00 12.2 15 Oeste 79 Oeste 5.2 -- -- 94
2020-11-25 13:00:00 16.8 13 Este 22 Este 0 -- -- 72
2020-11-25 12:00:00 16 11 Este 18 Este 0 -- -- 77
2020-11-25 11:00:00 14.5 6 Este 14 Este 0 -- -- 84
2020-11-25 10:00:00 12.8 6 Este 16 Este 0 -- -- 89
2020-11-25 09:00:00 11.5 4 Este 9 Este 0 -- -- 97
2020-11-25 08:00:00 11.8 3 Nordeste 8 Sur 0 -- -- 97
2020-11-25 07:00:00 12.2 2 Sur 6 Sur 0 -- -- 97
2020-11-25 06:00:00 12.5 3 Sudoeste 13 Sudoeste 0 -- -- 95
2020-11-25 05:00:00 12.9 3 Sudoeste 9 Oeste 0 -- -- 94
2020-11-25 04:00:00 12.5 2 Sudoeste 6 Sur 0 -- -- 94
2020-11-25 03:00:00 11.6 0 Calma 5 Este 0 -- -- 92
2020-11-25 02:00:00 12.1 3 Este 6 Este 0 -- -- 85
2020-11-25 01:00:00 12.4 3 Este 6 Este 0 -- -- 85
2020-11-25 00:00:00 12.4 3 Este 4 Este 0 -- -- 81
2020-11-24 23:00:00 12.9 0 Calma 9 Este 0 -- -- 68
2020-11-24 22:00:00 13.2 2 Este 7 Este 0 -- -- 66
2020-11-24 21:00:00 13.2 4 Sudeste 9 Sudeste 0 -- -- 67
2020-11-24 20:00:00 13.5 3 Sudeste 7 Sudeste 0 -- -- 65
2020-11-24 19:00:00 14.2 3 Este 5 Este 0 -- -- 61
2020-11-24 18:00:00 15.5 3 Este 4 Este 0 -- -- 57
2020-11-24 17:00:00 16.6 0 Calma 8 Norte 0 -- -- 49
2020-11-24 16:00:00 17.5 3 Noroeste 9 Noroeste 0 -- -- 45
2020-11-24 15:00:00 17.8 3 Sudoeste 10 Nordeste 0 -- -- 44
2020-11-24 14:00:00 16.2 5 Nordeste 14 Este 0 -- -- 49
2020-11-24 13:00:00 14.4 10 Este 18 Este 0 -- -- 53
2020-11-24 12:00:00 12.7 11 Este 18 Este 0 -- -- 58
2020-11-24 11:00:00 9.9 11 Nordeste 18 Este 0 -- -- 66
2020-11-24 10:00:00 6.7 9 Este 18 Este 0 -- -- 82
2020-11-24 09:00:00 5.4 8 Este 15 Este 0 -- -- 88
2020-11-24 08:00:00 4.7 9 Este 18 Este 0 -- -- 90
2020-11-24 07:00:00 5.1 8 Este 21 Nordeste 0 -- -- 87
2020-11-24 06:00:00 5.1 10 Este 16 Este 0 -- -- 89
2020-11-24 05:00:00 5.8 5 Este 20 Nordeste 0 -- -- 86
2020-11-24 04:00:00 6.1 11 Este 18 Nordeste 0 -- -- 88
2020-11-24 03:00:00 6.4 11 Este 17 Nordeste 0 -- -- 90
2020-11-24 02:00:00 6.8 6 Este 14 Este 0 -- -- 90
2020-11-24 01:00:00 7.3 4 Este 9 Nordeste 0 -- -- 90
2020-11-24 00:00:00 7.8 4 Nordeste 8 Nordeste 0 -- -- 85
2020-11-23 23:00:00 8.7 4 Este 13 Nordeste 0 -- -- 79
2020-11-23 22:00:00 8.8 4 Este 6 Este 0 -- -- 79
2020-11-23 21:00:00 9.5 0 Calma 7 Este 0 -- -- 74
2020-11-23 20:00:00 10.8 3 Este 7 Sudeste 0 -- -- 70
2020-11-23 19:00:00 12.7 6 Sudeste 9 Este 0 -- -- 61
2020-11-23 18:00:00 15.2 6 Este 13 Nordeste 0 -- -- 53
2020-11-23 17:00:00 17.3 10 Nordeste 17 Nordeste 0 -- -- 43
2020-11-23 16:00:00 17.7 10 Nordeste 17 Nordeste 0 -- -- 42
2020-11-23 15:00:00 17.6 7 Este 14 Este 0 -- -- 42
2020-11-23 14:00:00 16.5 8 Nordeste 15 Nordeste 0 -- -- 44
2020-11-23 13:00:00 15.3 11 Este 21 Este 0 -- -- 48
2020-11-23 12:00:00 13.2 11 Este 21 Este 0 -- -- 58
2020-11-23 11:00:00 10.9 10 Este 17 Este 0 -- -- 69
2020-11-23 10:00:00 8 8 Este 16 Nordeste 0 -- -- 85
2020-11-23 09:00:00 6.2 10 Este 17 Este 0 -- -- 92
2020-11-23 08:00:00 5.4 11 Este 18 Este 0 -- -- 95
2020-11-23 07:00:00 5.6 8 Este 14 Nordeste 0 -- -- 95
2020-11-23 06:00:00 5.5 7 Este 14 Nordeste 0 -- -- 93
2020-11-23 05:00:00 6.2 6 Este 11 Este 0 -- -- 92
2020-11-23 04:00:00 6.1 7 Este 11 Este 0 -- -- 92
2020-11-23 03:00:00 6.5 8 Este 12 Este 0 -- -- 93
2020-11-23 02:00:00 7.2 5 Este 8 Este 0 -- -- 92
2020-11-23 01:00:00 7.6 4 Este 9 Este 0 -- -- 86
2020-11-23 00:00:00 8.8 4 Este 8 Este 0 -- -- 78
2020-11-22 23:00:00 9.4 4 Este 9 Este 0 -- -- 75
2020-11-22 22:00:00 10 4 Este 8 Nordeste 0 -- -- 74
2020-11-22 21:00:00 10.3 3 Norte 12 Sudeste 0 -- -- 73
2020-11-22 20:00:00 12 4 Sudeste 7 Este 0 -- -- 63
2020-11-22 19:00:00 14 6 Este 8 Este 0 -- -- 54
2020-11-22 18:00:00 15.8 7 Este 13 Nordeste 0 -- -- 50
2020-11-22 17:00:00 18.1 9 Nordeste 18 Este 0 -- -- 40
2020-11-22 16:00:00 18.8 10 Este 17 Este 0 -- -- 37
2020-11-22 15:00:00 18.9 7 Nordeste 14 Este 0 -- -- 36
2020-11-22 14:00:00 18.4 8 Este 23 Nordeste 0 -- -- 46
2020-11-22 13:00:00 17.3 12 Este 25 Este 0 -- -- 55
2020-11-22 12:00:00 15.5 15 Este 30 Este 0 -- -- 60
2020-11-22 11:00:00 13.9 16 Este 27 Este 0 -- -- 69
2020-11-22 10:00:00 10.9 8 Este 16 Este 0 -- -- 86
2020-11-22 09:00:00 8.8 8 Este 17 Este 0 -- -- 94
2020-11-22 08:00:00 7.9 7 Este 14 Este 0 -- -- 96
2020-11-22 07:00:00 8.2 8 Este 13 Este 0 -- -- 96
2020-11-22 06:00:00 8.8 7 Este 15 Este 0 -- -- 95
2020-11-22 05:00:00 9.1 6 Este 13 Este 0 -- -- 95
2020-11-22 04:00:00 9.5 5 Este 14 Este 0 -- -- 94
2020-11-22 03:00:00 9.9 5 Sudeste 12 Nordeste 0 -- -- 94
2020-11-22 02:00:00 10.6 5 Este 13 Nordeste 0 -- -- 90
2020-11-22 01:00:00 11 5 Este 9 Este 0 -- -- 88
2020-11-22 00:00:00 11.3 2 Este 7 Este 0 -- -- 85
2020-11-21 23:00:00 12.1 0 Calma 4 Este 0 -- -- 81
2020-11-21 22:00:00 12.6 2 Norte 4 Norte 0 -- -- 78
2020-11-21 21:00:00 13.2 2 Nordeste 14 Sur 0 -- -- 72
2020-11-21 20:00:00 14.1 10 Sur 15 Sudoeste 0 -- -- 68
2020-11-21 19:00:00 15.3 8 Sudoeste 13 Sur 0 -- -- 62
2020-11-21 18:00:00 17.8 6 Sudoeste 16 Sur 0 -- -- 55
2020-11-21 17:00:00 20.5 10 Sur 17 Sudoeste 0 -- -- 45
2020-11-21 16:00:00 20.4 9 Nordeste 14 Nordeste 0 -- -- 46
2020-11-21 15:00:00 20.1 12 Nordeste 18 Nordeste 0 -- -- 45
2020-11-21 14:00:00 19.4 10 Nordeste 20 Nordeste 0 -- -- 44
2020-11-21 13:00:00 18 13 Este 25 Este 0 -- -- 41
2020-11-21 12:00:00 16.8 13 Este 21 Este 0 -- -- 43
2020-11-21 11:00:00 14.3 8 Este 13 Este 0 -- -- 50
2020-11-21 10:00:00 11.3 8 Este 11 Este 0 -- -- 57
2020-11-21 09:00:00 8.3 7 Este 15 Este 0 -- -- 69
2020-11-21 08:00:00 7.6 6 Este 17 Este 0 -- -- 69
2020-11-21 07:00:00 7.9 8 Este 18 Este 0 -- -- 66
2020-11-21 06:00:00 8.5 8 Este 21 Nordeste 0 -- -- 64
2020-11-21 05:00:00 8.8 9 Este 14 Este 0 -- -- 62
2020-11-21 04:00:00 8.7 4 Este 15 Nordeste 0 -- -- 64
2020-11-21 03:00:00 9.4 6 Nordeste 13 Este 0 -- -- 61
2020-11-21 02:00:00 10 5 Este 14 Este 0 -- -- 59
2020-11-21 01:00:00 10.4 8 Este 13 Este 0 -- -- 59
2020-11-21 00:00:00 11.4 9 Este 13 Este 0 -- -- 51
2020-11-20 23:00:00 11.4 6 Este 9 Sudeste 0 -- -- 56
2020-11-20 22:00:00 13.3 7 Sudeste 9 Sudeste 0 -- -- 55
2020-11-20 21:00:00 14 6 Este 13 Este 0 -- -- 61
2020-11-20 20:00:00 15.2 8 Nordeste 10 Nordeste 0 -- -- 58
2020-11-20 19:00:00 17 5 Nordeste 6 Nordeste 0 -- -- 46
2020-11-20 18:00:00 19.9 0 Calma 12 Nordeste 0 -- -- 31
2020-11-20 17:00:00 22.7 8 Nordeste 18 Este 0 -- -- 29
2020-11-20 16:00:00 23.1 12 Este 24 Este 0 -- -- 31
2020-11-20 15:00:00 22.8 9 Este 18 Este 0 -- -- 40
2020-11-20 14:00:00 21.6 9 Nordeste 16 Nordeste 0 -- -- 57
2020-11-20 13:00:00 20.5 10 Este 18 Sudeste 0 -- -- 59
2020-11-20 12:00:00 18.7 9 Nordeste 16 Este 0 -- -- 66
2020-11-20 11:00:00 15.9 6 Este 13 Este 0 -- -- 77
2020-11-20 10:00:00 13.2 8 Nordeste 15 Nordeste 0 -- -- 86
2020-11-20 09:00:00 11 7 Este 12 Este 0.2 -- -- 96
2020-11-20 08:00:00 9.9 6 Este 10 Este 0 -- -- 97
2020-11-20 07:00:00 10.2 0 Calma 11 Este 0 -- -- 97
2020-11-20 06:00:00 10.4 5 Este 9 Este 0 -- -- 97
2020-11-20 05:00:00 10.5 2 Sudeste 4 Este 0 -- -- 96
2020-11-20 04:00:00 11.5 2 Nordeste 9 Sudeste 0 -- -- 96
2020-11-20 03:00:00 11.3 7 Sudeste 9 Sudeste 0 -- -- 97
2020-11-20 02:00:00 11.3 2 Sudeste 6 Sudeste 0 -- -- 96
2020-11-20 01:00:00 11.7 0 Calma 5 Norte 0 -- -- 95
2020-11-20 00:00:00 12.4 0 Calma 4 Sudeste 0 -- -- 95
2020-11-19 23:00:00 13.1 2 Este 3 Este 0 -- -- 93
2020-11-19 22:00:00 14 2 Sudeste 8 Sudeste 0 -- -- 90
2020-11-19 21:00:00 15.3 7 Sudeste 12 Sur 0 -- -- 83
2020-11-19 20:00:00 17 3 Sur 13 Sur 0 -- -- 73
2020-11-19 19:00:00 18.4 0 Calma 13 Sudoeste 0 -- -- 67
2020-11-19 18:00:00 21.2 0 Calma 5 Noroeste 0 -- -- 52
2020-11-19 17:00:00 23.6 3 Oeste 9 Oeste 0 -- -- 48
2020-11-19 16:00:00 23.9 5 Noroeste 9 Noroeste 0 -- -- 46
2020-11-19 15:00:00 23.6 3 Este 11 Nordeste 0 -- -- 46
2020-11-19 14:00:00 22.4 7 Nordeste 13 Nordeste 0 -- -- 53
2020-11-19 13:00:00 20.6 6 Nordeste 12 Nordeste 0 -- -- 61
2020-11-19 12:00:00 18.9 6 Este 13 Sudeste 0 -- -- 65
2020-11-19 11:00:00 16.6 7 Este 13 Sudeste 0 -- -- 71
2020-11-19 10:00:00 13.9 9 Este 13 Este 0 -- -- 84
2020-11-19 09:00:00 11.7 7 Este 12 Este 0 -- -- 93
2020-11-19 08:00:00 11.1 6 Nordeste 13 Este 0 -- -- 95
2020-11-19 07:00:00 10.6 6 Este 13 Este 0 -- -- 97
2020-11-19 06:00:00 10.6 8 Este 13 Este 0 -- -- 96
2020-11-19 05:00:00 10.8 6 Nordeste 9 Nordeste 0 -- -- 96
2020-11-19 04:00:00 11.7 6 Este 9 Este 0 -- -- 94
2020-11-19 03:00:00 12.6 6 Este 10 Este 0 -- -- 92
2020-11-19 02:00:00 12.7 6 Este 12 Este 0 -- -- 92
2020-11-19 01:00:00 13.4 5 Este 11 Este 0 -- -- 93
2020-11-19 00:00:00 13.9 3 Este 8 Este 0 -- -- 92
2020-11-18 23:00:00 14.3 3 Este 10 Este 0 -- -- 90
2020-11-18 22:00:00 15.5 6 Este 11 Este 0 -- -- 89
2020-11-18 21:00:00 16 7 Sudeste 10 Este 0 -- -- 87
2020-11-18 20:00:00 16.7 3 Este 6 Norte 0 -- -- 80
2020-11-18 19:00:00 18.2 0 Calma 5 Este 0 -- -- 72
2020-11-18 18:00:00 20.9 3 Este 5 Este 0 -- -- 62
2020-11-18 17:00:00 23.1 4 Este 12 Este 0 -- -- 54
2020-11-18 16:00:00 23.3 9 Este 15 Este 0 -- -- 52
2020-11-18 15:00:00 23 8 Este 19 Este 0 -- -- 53
2020-11-18 14:00:00 21.7 13 Este 22 Este 0 -- -- 56
2020-11-18 13:00:00 20.1 14 Este 26 Este 0 -- -- 60
2020-11-18 12:00:00 18.2 16 Este 26 Nordeste 0 -- -- 69
2020-11-18 11:00:00 16.4 11 Este 19 Nordeste 0 -- -- 78
2020-11-18 10:00:00 13.8 6 Nordeste 13 Este 0 -- -- 91
2020-11-18 09:00:00 11.7 5 Este 14 Este 0 -- -- 97
2020-11-18 08:00:00 10.9 7 Este 17 Este 0 -- -- 98
2020-11-18 07:00:00 11.3 8 Este 12 Este 0 -- -- 98
2020-11-18 06:00:00 11.5 8 Este 12 Nordeste 0 -- -- 98
2020-11-18 05:00:00 11.9 7 Este 14 Este 0 -- -- 98
2020-11-18 04:00:00 12.3 8 Este 14 Este 0 -- -- 98
2020-11-18 03:00:00 12.5 7 Este 13 Este 0 -- -- 98
2020-11-18 02:00:00 12.9 6 Este 9 Este 0 -- -- 98
2020-11-18 01:00:00 13.5 6 Este 12 Este 0 -- -- 97
2020-11-18 00:00:00 14.2 4 Este 9 Este 0 -- -- 97
2020-11-17 23:00:00 14.8 5 Este 8 Este 0 -- -- 97
2020-11-17 22:00:00 14.9 6 Este 8 Este 0 -- -- 96
2020-11-17 21:00:00 15.8 2 Este 7 Este 0 -- -- 94
2020-11-17 20:00:00 16.1 4 Este 6 Este 0 -- -- 91
2020-11-17 19:00:00 18.4 3 Sudeste 4 Sudeste 0 -- -- 82
2020-11-17 18:00:00 20.5 2 Oeste 3 Oeste 0 -- -- 73
2020-11-17 17:00:00 22.8 0 Calma 6 Este 0 -- -- 64
2020-11-17 16:00:00 22.2 5 Nordeste 12 Nordeste 0 -- -- 69
2020-11-17 15:00:00 21.6 8 Este 15 Este 0 -- -- 74
2020-11-17 14:00:00 20.1 11 Este 20 Este 0 -- -- 81
2020-11-17 13:00:00 18.4 11 Este 23 Nordeste 0 -- -- 89
2020-11-17 12:00:00 16 13 Nordeste 26 Nordeste 0 -- -- 98
2020-11-17 11:00:00 15 11 Este 24 Este 0 -- -- 99
2020-11-17 10:00:00 13.9 11 Este 18 Nordeste 0 -- -- 100
2020-11-17 09:00:00 12.7 5 Nordeste 13 Nordeste 0 -- -- 100
2020-11-17 08:00:00 11.9 8 Este 18 Nordeste 0 -- -- 100
2020-11-17 07:00:00 12.8 9 Nordeste 14 Este 0.2 -- -- 99
2020-11-17 06:00:00 13.1 7 Este 10 Este 0 -- -- 99
2020-11-17 05:00:00 12.8 5 Este 8 Este 0 -- -- 99
2020-11-17 04:00:00 13.2 4 Este 9 Este 0 -- -- 99
2020-11-17 03:00:00 13.6 5 Este 9 Nordeste 0 -- -- 98
2020-11-17 02:00:00 13.8 4 Este 8 Este 0 -- -- 98
2020-11-17 01:00:00 14.6 5 Este 8 Este 0 -- -- 97
2020-11-17 00:00:00 15.2 3 Este 12 Nordeste 0 -- -- 98
2020-11-16 23:00:00 15.2 2 Este 7 Este 0 -- -- 97
2020-11-16 22:00:00 16.2 4 Este 7 Este 0 -- -- 97
2020-11-16 21:00:00 16.1 4 Este 6 Este 0 -- -- 94
2020-11-16 20:00:00 17.2 2 Sudeste 3 Sudeste 0 -- -- 93
2020-11-16 19:00:00 18.6 0 Calma 6 Sudoeste 0 -- -- 88
2020-11-16 18:00:00 20.4 4 Sudoeste 7 Sudoeste 0 -- -- 82
2020-11-16 17:00:00 22.5 3 Sudoeste 10 Oeste 0 -- -- 71
2020-11-16 16:00:00 22.8 5 Sudoeste 10 Sudoeste 0 -- -- 69
2020-11-16 15:00:00 22.2 2 Sudoeste 8 Noroeste 0 -- -- 72
2020-11-16 14:00:00 21.6 4 Oeste 10 Sudeste 0 -- -- 76
2020-11-16 13:00:00 20.7 5 Sudeste 9 Sur 0 -- -- 78
2020-11-16 12:00:00 18.3 6 Sudeste 10 Sudeste 0 -- -- 87
2020-11-16 11:00:00 17.5 5 Este 8 Sudeste 0 -- -- 89
2020-11-16 10:00:00 15.1 4 Nordeste 7 Este 0 -- -- 98
2020-11-16 09:00:00 13.6 4 Sudeste 6 Sudeste 0 -- -- 99
2020-11-16 08:00:00 12.9 2 Este 7 Nordeste 0 -- -- 99
2020-11-16 07:00:00 12.7 2 Nordeste 4 Norte 0 -- -- 98
2020-11-16 06:00:00 13 0 Calma 11 Sur 0 -- -- 98
2020-11-16 05:00:00 13.5 7 Sudeste 8 Sudeste 0 -- -- 98
2020-11-16 04:00:00 14 5 Este 8 Este 0 -- -- 98
2020-11-16 03:00:00 14.1 4 Nordeste 9 Este 0 -- -- 97
2020-11-16 02:00:00 14.6 3 Este 5 Sudeste 0 -- -- 96
2020-11-16 01:00:00 15.2 0 Calma 9 Este 0 -- -- 96
2020-11-16 00:00:00 15.9 5 Sudeste 10 Sudeste 0 -- -- 95
2020-11-15 23:00:00 16.2 5 Este 12 Este 0 -- -- 94
2020-11-15 22:00:00 16.5 6 Este 10 Este 0 -- -- 94
2020-11-15 21:00:00 17.3 4 Este 10 Nordeste 0 -- -- 93
2020-11-15 20:00:00 18.3 4 Sudeste 8 Sudeste 0 -- -- 89
2020-11-15 19:00:00 19 5 Este 7 Este 0 -- -- 87
2020-11-15 18:00:00 20.2 3 Este 9 Este 0 -- -- 82
2020-11-15 17:00:00 21.3 6 Nordeste 12 Nordeste 0 -- -- 78
2020-11-15 16:00:00 22.6 4 Nordeste 12 Este 0 -- -- 73
2020-11-15 15:00:00 22 7 Este 15 Este 0 -- -- 76
2020-11-15 14:00:00 20.8 10 Este 19 Nordeste 0 -- -- 79
2020-11-15 13:00:00 19.8 13 Este 22 Este 0 -- -- 83
2020-11-15 12:00:00 17.8 15 Este 21 Este 0 -- -- 91
2020-11-15 11:00:00 16.5 11 Nordeste 19 Este 0 -- -- 98
2020-11-15 10:00:00 15.8 9 Este 15 Este 0 -- -- 99
2020-11-15 09:00:00 15.2 8 Este 13 Este 0 -- -- 99
2020-11-15 08:00:00 15.1 8 Este 9 Este 0 -- -- 99
2020-11-15 07:00:00 15.6 2 Este 6 Este 0 -- -- 99
2020-11-15 06:00:00 15.6 2 Este 8 Este 0 -- -- 99
2020-11-15 05:00:00 15.5 5 Este 10 Este 0.2 -- -- 99
2020-11-15 04:00:00 15.7 4 Este 10 Este 0 -- -- 98
2020-11-15 03:00:00 16.4 0 Calma 9 Sudeste 0 -- -- 98
2020-11-15 02:00:00 16.5 5 Sur 8 Sur 0 -- -- 98
2020-11-15 01:00:00 16.2 3 Sudeste 6 Sudeste 0 -- -- 98
2020-11-15 00:00:00 16.1 5 Este 9 Este 0 -- -- 98
2020-11-14 23:00:00 16.1 0 Calma 7 Este 0 -- -- 98
2020-11-14 22:00:00 15.8 5 Este 8 Este 0 -- -- 98
2020-11-14 21:00:00 15.6 3 Este 6 Este 0 -- -- 98
2020-11-14 20:00:00 16.1 4 Este 7 Este 0 -- -- 98
2020-11-14 19:00:00 16.3 3 Este 8 Este 0 -- -- 97
2020-11-14 18:00:00 16.6 0 Calma 9 Este 0 -- -- 96
2020-11-14 17:00:00 16.8 5 Este 10 Nordeste 0 -- -- 95
2020-11-14 16:00:00 17.3 5 Este 8 Nordeste 0.6 -- -- 96
2020-11-14 15:00:00 15.7 6 Noroeste 19 Este 2.6 -- -- 97
2020-11-14 14:00:00 16.1 5 Este 10 Este 1.6 -- -- 95
2020-11-14 13:00:00 15.9 5 Este 9 Este 1.4 -- -- 94
2020-11-14 12:00:00 16.3 2 Nordeste 5 Norte 0.2 -- -- 89
2020-11-14 11:00:00 16.9 2 Noroeste 8 Este 0 -- -- 83
2020-11-14 10:00:00 15.9 5 Este 10 Nordeste 0 -- -- 84
2020-11-14 09:00:00 15.1 4 Este 8 Este 0 -- -- 89
2020-11-14 08:00:00 14.8 5 Este 13 Este 0 -- -- 89
2020-11-14 07:00:00 15 4 Este 10 Este 0 -- -- 85
2020-11-14 06:00:00 14.8 4 Este 9 Este 0 -- -- 85
2020-11-14 05:00:00 14.8 4 Este 6 Este 0 -- -- 87
2020-11-14 04:00:00 15.1 4 Este 9 Este 0 -- -- 83
2020-11-14 03:00:00 15.2 4 Este 9 Este 0 -- -- 83
2020-11-14 02:00:00 15.2 6 Este 10 Este 0 -- -- 85
2020-11-14 01:00:00 15.4 5 Sudeste 8 Sudeste 0 -- -- 82
2020-11-14 00:00:00 15.4 4 Este 6 Este 0 -- -- 85
2020-11-13 23:00:00 15.9 4 Este 6 Este 0 -- -- 83
2020-11-13 22:00:00 16.2 4 Este 5 Este 0 -- -- 84
2020-11-13 21:00:00 16.7 4 Este 8 Este 0 -- -- 81
2020-11-13 20:00:00 17 3 Este 5 Este 0 -- -- 79
2020-11-13 19:00:00 17.3 2 Este 4 Este 0 -- -- 75
2020-11-13 18:00:00 18.6 2 Este 4 Este 0 -- -- 73
2020-11-13 17:00:00 19.7 3 Nordeste 9 Nordeste 0 -- -- 66
2020-11-13 16:00:00 20.8 5 Nordeste 12 Este 0 -- -- 60
2020-11-13 15:00:00 20.7 6 Este 16 Este 0 -- -- 62
2020-11-13 14:00:00 20.3 7 Este 15 Este 0 -- -- 62
2020-11-13 13:00:00 18.6 9 Nordeste 19 Este 0 -- -- 66
2020-11-13 12:00:00 17.3 14 Este 24 Este 0 -- -- 68
2020-11-13 11:00:00 15.8 13 Este 21 Este 0 -- -- 70
2020-11-13 10:00:00 13 7 Este 17 Este 0 -- -- 82
2020-11-13 09:00:00 10.2 8 Este 15 Este 0 -- -- 92
2020-11-13 08:00:00 9.3 8 Este 14 Este 0 -- -- 93
2020-11-13 07:00:00 10 9 Este 17 Este 0 -- -- 92
2020-11-13 06:00:00 10.1 9 Este 18 Este 0 -- -- 93
2020-11-13 05:00:00 10.2 9 Este 17 Este 0 -- -- 93
2020-11-13 04:00:00 10.7 10 Este 16 Este 0 -- -- 91
2020-11-13 03:00:00 11 6 Este 13 Este 0 -- -- 93
2020-11-13 02:00:00 11.6 6 Nordeste 10 Nordeste 0 -- -- 91
2020-11-13 01:00:00 11.5 4 Este 6 Este 0 -- -- 91
2020-11-13 00:00:00 11.8 4 Este 8 Nordeste 0 -- -- 90
2020-11-12 23:00:00 12.4 4 Este 8 Este 0 -- -- 88
2020-11-12 22:00:00 13.1 4 Este 9 Este 0 -- -- 87
2020-11-12 21:00:00 13.9 5 Sudeste 10 Este 0 -- -- 84
2020-11-12 20:00:00 15.1 4 Sudeste 10 Este 0 -- -- 78
2020-11-12 19:00:00 16.2 8 Sudeste 11 Sudeste 0 -- -- 73
2020-11-12 18:00:00 18.1 6 Este 15 Nordeste 0 -- -- 66
2020-11-12 17:00:00 20 11 Nordeste 22 Nordeste 0 -- -- 57
2020-11-12 16:00:00 20.7 11 Nordeste 18 Este 0 -- -- 55
2020-11-12 15:00:00 20.7 9 Este 17 Nordeste 0 -- -- 56
2020-11-12 14:00:00 19.6 10 Este 19 Este 0 -- -- 61
2020-11-12 13:00:00 18.2 13 Este 21 Este 0 -- -- 64
2020-11-12 12:00:00 16.3 13 Nordeste 28 Este 0 -- -- 73
2020-11-12 11:00:00 14 12 Este 22 Este 0 -- -- 82
2020-11-12 10:00:00 11.6 8 Este 15 Nordeste 0 -- -- 89
2020-11-12 09:00:00 10.6 8 Este 13 Este 0 -- -- 93
2020-11-12 08:00:00 9.9 7 Este 11 Este 0 -- -- 94
2020-11-12 07:00:00 10.3 6 Este 12 Nordeste 0 -- -- 95
2020-11-12 06:00:00 10.7 4 Este 15 Nordeste 0 -- -- 95
2020-11-12 05:00:00 11 7 Este 16 Este 0 -- -- 94
2020-11-12 04:00:00 11.2 6 Este 12 Este 0 -- -- 94
2020-11-12 03:00:00 11.3 4 Este 8 Este 0 -- -- 92
2020-11-12 02:00:00 11.3 4 Este 11 Este 0 -- -- 93
2020-11-12 01:00:00 11.6 5 Este 12 Este 0 -- -- 89
2020-11-12 00:00:00 12.4 6 Este 10 Este 0 -- -- 86
2020-11-11 23:00:00 12.6 3 Este 8 Nordeste 0 -- -- 86
2020-11-11 22:00:00 13.1 4 Este 6 Este 0 -- -- 88
2020-11-11 21:00:00 13.9 3 Este 7 Sudoeste 0 -- -- 86
2020-11-11 20:00:00 15.1 5 Sudoeste 11 Sur 0 -- -- 80
2020-11-11 19:00:00 16.6 8 Sur 10 Sudeste 0 -- -- 72
2020-11-11 18:00:00 18.6 3 Este 6 Nordeste 0 -- -- 67
2020-11-11 17:00:00 19.8 3 Norte 13 Norte 0 -- -- 61
2020-11-11 16:00:00 20.7 7 Norte 14 Nordeste 0 -- -- 56
2020-11-11 15:00:00 21.1 7 Nordeste 13 Este 0 -- -- 55
2020-11-11 14:00:00 20.4 8 Nordeste 13 Nordeste 0 -- -- 59
2020-11-11 13:00:00 19.5 7 Nordeste 19 Este 0 -- -- 61
2020-11-11 12:00:00 17.9 14 Nordeste 21 Este 0 -- -- 67
2020-11-11 11:00:00 16.2 10 Este 18 Este 0 -- -- 74
2020-11-11 10:00:00 14 10 Este 16 Este 0 -- -- 81
2020-11-11 09:00:00 11.1 8 Este 12 Este 0 -- -- 91
2020-11-11 08:00:00 9.5 7 Este 12 Este 0 -- -- 95
2020-11-11 07:00:00 9.7 8 Este 17 Este 0 -- -- 95
2020-11-11 06:00:00 10 8 Este 14 Nordeste 0 -- -- 95
2020-11-11 05:00:00 10.3 7 Nordeste 16 Nordeste 0 -- -- 94
2020-11-11 04:00:00 10.1 7 Este 10 Nordeste 0 -- -- 94
2020-11-11 03:00:00 10.6 5 Este 7 Nordeste 0 -- -- 92
2020-11-11 02:00:00 11.2 4 Nordeste 9 Nordeste 0 -- -- 88
2020-11-11 01:00:00 11 0 Calma 8 Nordeste 0 -- -- 91
2020-11-11 00:00:00 11.6 3 Nordeste 6 Sudeste 0 -- -- 92
2020-11-10 23:00:00 12.1 6 Sudeste 10 Sur 0 -- -- 89
2020-11-10 22:00:00 13 5 Este 11 Este 0 -- -- 83
2020-11-10 21:00:00 13.7 6 Nordeste 12 Nordeste 0 -- -- 81
2020-11-10 20:00:00 14.8 4 Este 7 Nordeste 0 -- -- 80
2020-11-10 19:00:00 16.3 6 Sudeste 8 Este 0 -- -- 75
2020-11-10 18:00:00 19 8 Sudeste 13 Este 0 -- -- 65
2020-11-10 17:00:00 20.9 10 Este 17 Este 0 -- -- 56
2020-11-10 16:00:00 21.2 14 Este 26 Este 0 -- -- 58
2020-11-10 15:00:00 20.8 14 Este 27 Este 0 -- -- 62
2020-11-10 14:00:00 19.7 18 Este 34 Este 0 -- -- 66
2020-11-10 13:00:00 18.5 16 Este 26 Este 0 -- -- 71
2020-11-10 12:00:00 15.6 12 Este 22 Este 0 -- -- 86
2020-11-10 11:00:00 12.7 13 Este 22 Nordeste 0 -- -- 98
2020-11-10 10:00:00 10.9 11 Este 20 Este 0 -- -- 99
2020-11-10 09:00:00 9.9 5 Este 12 Nordeste 0.2 -- -- 99
2020-11-10 08:00:00 9.2 7 Este 10 Este 0 -- -- 99
2020-11-10 07:00:00 9.2 3 Este 7 Este 0 -- -- 98
2020-11-10 06:00:00 9.3 5 Este 6 Nordeste 0 -- -- 97
2020-11-10 05:00:00 9.9 4 Este 12 Este 0 -- -- 97
2020-11-10 04:00:00 10.2 4 Este 6 Este 0 -- -- 97
2020-11-10 03:00:00 10.7 2 Nordeste 8 Nordeste 0 -- -- 96
2020-11-10 02:00:00 11.6 3 Nordeste 8 Nordeste 0 -- -- 96
2020-11-10 01:00:00 12 3 Nordeste 8 Nordeste 0 -- -- 95
2020-11-10 00:00:00 12.2 4 Este 7 Este 0 -- -- 97
2020-11-09 23:00:00 12.4 2 Este 4 Este 0 -- -- 95
2020-11-09 22:00:00 13.2 2 Este 8 Este 0 -- -- 93
2020-11-09 21:00:00 13.8 3 Este 6 Este 0 -- -- 92
2020-11-09 20:00:00 14.6 0 Calma 2 Nordeste 0 -- -- 87
2020-11-09 19:00:00 16.2 0 Calma 4 Sudoeste 0 -- -- 80
2020-11-09 18:00:00 18.6 0 Calma 4 Sudeste 0 -- -- 68
2020-11-09 17:00:00 19.7 3 Sudeste 6 Sudeste 0 -- -- 65
2020-11-09 16:00:00 20 4 Sudoeste 10 Sur 0 -- -- 65
2020-11-09 15:00:00 20.1 4 Sudeste 14 Sur 0 -- -- 69
2020-11-09 14:00:00 19.3 6 Sur 12 Sur 0 -- -- 72
2020-11-09 13:00:00 18.6 3 Sudoeste 6 Sudoeste 0 -- -- 78
2020-11-09 12:00:00 17 3 Sudoeste 9 Sur 0 -- -- 83
2020-11-09 11:00:00 16.2 5 Sudeste 10 Sudeste 0 -- -- 88
2020-11-09 10:00:00 14.8 3 Este 8 Este 0.2 -- -- 96
2020-11-09 09:00:00 13.9 0 Calma 10 Este 0 -- -- 97
2020-11-09 08:00:00 13.4 4 Este 8 Este 0 -- -- 98
2020-11-09 07:00:00 13 4 Este 8 Este 0 -- -- 98
2020-11-09 06:00:00 12.8 5 Este 7 Este 0 -- -- 98
2020-11-09 05:00:00 13.2 5 Sudeste 9 Sudeste 0 -- -- 97
2020-11-09 04:00:00 12.8 4 Sudeste 6 Sudeste 0 -- -- 97
2020-11-09 03:00:00 12.7 3 Este 5 Este 0 -- -- 97
2020-11-09 02:00:00 13.6 3 Sur 7 Sudoeste 0 -- -- 96
2020-11-09 01:00:00 13.9 2 Oeste 4 Oeste 0 -- -- 96
2020-11-09 00:00:00 14.4 2 Noroeste 4 Sudoeste 0 -- -- 94
2020-11-08 23:00:00 14.6 3 Sudeste 5 Este 0 -- -- 92
2020-11-08 22:00:00 14.9 2 Sudeste 4 Este 0 -- -- 92
2020-11-08 21:00:00 16 2 Sudoeste 8 Sudeste 0 -- -- 86
2020-11-08 20:00:00 16.4 5 Sudeste 6 Sudeste 0 -- -- 84
2020-11-08 19:00:00 17.1 4 Este 5 Este 0 -- -- 79
2020-11-08 18:00:00 19.1 0 Calma 4 Noroeste 0 -- -- 72
2020-11-08 17:00:00 20.6 2 Noroeste 9 Noroeste 0 -- -- 63
2020-11-08 16:00:00 21.3 4 Este 9 Nordeste 0 -- -- 61
2020-11-08 15:00:00 21.3 4 Oeste 9 Este 0 -- -- 61
2020-11-08 14:00:00 20.6 5 Este 14 Nordeste 0 -- -- 65
2020-11-08 13:00:00 19.3 6 Nordeste 13 Este 0 -- -- 67
2020-11-08 12:00:00 17.5 8 Este 15 Este 0 -- -- 75
2020-11-08 11:00:00 15.7 11 Este 24 Este 0 -- -- 81
2020-11-08 10:00:00 13.8 7 Nordeste 15 Este 0 -- -- 93
2020-11-08 09:00:00 11.9 8 Este 13 Este 0 -- -- 99
2020-11-08 08:00:00 10.3 5 Este 9 Nordeste 0 -- -- 99
2020-11-08 07:00:00 10.7 5 Este 10 Nordeste 0 -- -- 99
2020-11-08 06:00:00 10.8 0 Calma 8 Este 0 -- -- 98
2020-11-08 05:00:00 11.2 4 Este 10 Este 0 -- -- 98
2020-11-08 04:00:00 11.4 5 Este 10 Este 0.2 -- -- 98
2020-11-08 03:00:00 11.7 6 Este 13 Este 0 -- -- 97
2020-11-08 02:00:00 11.9 7 Este 12 Este 0 -- -- 97
2020-11-08 01:00:00 12.3 6 Este 9 Este 0 -- -- 96
2020-11-08 00:00:00 12.9 6 Este 9 Este 0 -- -- 95
2020-11-07 23:00:00 13.2 6 Este 8 Este 0 -- -- 96
2020-11-07 22:00:00 13.2 3 Sudeste 9 Sudeste 0 -- -- 94
2020-11-07 21:00:00 13.8 3 Este 8 Sudeste 0 -- -- 93
2020-11-07 20:00:00 15.3 4 Sur 6 Sudoeste 0 -- -- 86
2020-11-07 19:00:00 16.4 4 Sur 6 Sudeste 0 -- -- 79
2020-11-07 18:00:00 18.3 2 Sudoeste 10 Oeste 0 -- -- 70
2020-11-07 17:00:00 20.1 7 Oeste 19 Oeste 0 -- -- 63
2020-11-07 16:00:00 20.3 10 Oeste 18 Oeste 0 -- -- 64
2020-11-07 15:00:00 20.3 8 Oeste 19 Oeste 0 -- -- 65
2020-11-07 14:00:00 19.6 10 Oeste 20 Oeste 0 -- -- 70
2020-11-07 13:00:00 18.8 10 Oeste 22 Oeste 0 -- -- 74
2020-11-07 12:00:00 17.8 11 Oeste 20 Oeste 0 -- -- 78
2020-11-07 11:00:00 16.3 9 Oeste 15 Oeste 0 -- -- 89
2020-11-07 10:00:00 14.3 7 Noroeste 13 Oeste 0 -- -- 95
2020-11-07 09:00:00 13.6 3 Noroeste 10 Sudoeste 0 -- -- 96
2020-11-07 08:00:00 12.4 2 Nordeste 9 Sudeste 0 -- -- 97
2020-11-07 07:00:00 12.1 5 Nordeste 17 Este 0 -- -- 97
2020-11-07 06:00:00 12 10 Este 16 Este 2 -- -- 97
2020-11-07 05:00:00 12.2 9 Este 15 Sudeste 0.8 -- -- 95
2020-11-07 04:00:00 12 5 Nordeste 15 Sudeste 0.8 -- -- 94
2020-11-07 03:00:00 12 10 Oeste 52 Oeste 5 -- -- 88
2020-11-07 02:00:00 15.2 10 Oeste 30 Sudeste 0.6 -- -- 86
2020-11-07 01:00:00 17.3 18 Sudeste 32 Sudeste 0.2 -- -- 74
2020-11-07 00:00:00 17 20 Sudeste 33 Sudeste 0 -- -- 77
2020-11-06 23:00:00 16.4 18 Sudeste 29 Sur 0 -- -- 81
2020-11-06 22:00:00 16.7 21 Sur 37 Sudeste 1.4 -- -- 80
2020-11-06 21:00:00 18.3 15 Sur 32 Sur 0.4 -- -- 72
2020-11-06 20:00:00 19.2 9 Noroeste 30 Oeste 0 -- -- 76
2020-11-06 19:00:00 19.7 10 Oeste 14 Oeste 0 -- -- 74
2020-11-06 18:00:00 20.3 8 Oeste 21 Oeste 0 -- -- 72
2020-11-06 17:00:00 21.7 3 Nordeste 24 Oeste 0 -- -- 67
2020-11-06 16:00:00 22.4 15 Oeste 27 Oeste 0 -- -- 60
2020-11-06 15:00:00 24.2 3 Oeste 6 Este 0 -- -- 61
2020-11-06 14:00:00 22.3 4 Sudeste 15 Nordeste 0 -- -- 61
2020-11-06 13:00:00 20.7 4 Noroeste 10 Oeste 0 -- -- 67
2020-11-06 12:00:00 21.1 3 Este 19 Este 0 -- -- 61
2020-11-06 11:00:00 19.3 12 Este 32 Este 0 -- -- 62
2020-11-06 10:00:00 18.6 19 Este 32 Este 0 -- -- 62
2020-11-06 09:00:00 17.3 17 Este 30 Este 0 -- -- 67
2020-11-06 08:00:00 16.5 15 Este 28 Este 0 -- -- 69
2020-11-06 07:00:00 15.7 15 Este 25 Este 0 -- -- 73
2020-11-06 06:00:00 14 9 Este 17 Este 0 -- -- 85
2020-11-06 05:00:00 14.3 12 Este 22 Este 0 -- -- 85
2020-11-06 04:00:00 14.9 13 Este 22 Este 0 -- -- 84
2020-11-06 03:00:00 15.1 15 Este 24 Este 0 -- -- 84
2020-11-06 02:00:00 16 7 Nordeste 24 Este 0 -- -- 80
2020-11-06 01:00:00 16 12 Este 19 Este 0 -- -- 81
2020-11-06 00:00:00 16.1 13 Este 28 Este 0 -- -- 81
2020-11-05 23:00:00 15.9 15 Este 25 Este 0 -- -- 84
2020-11-05 22:00:00 15.2 9 Este 22 Este 0 -- -- 87
2020-11-05 21:00:00 15 13 Este 27 Este 0 -- -- 88
2020-11-05 20:00:00 15.2 15 Este 24 Este 0 -- -- 87
2020-11-05 19:00:00 14.5 9 Este 17 Este 0 -- -- 94
2020-11-05 18:00:00 15.1 11 Este 22 Este 0 -- -- 94
2020-11-05 17:00:00 16 10 Este 20 Nordeste 0 -- -- 92
2020-11-05 16:00:00 16.3 8 Nordeste 14 Este 0.4 -- -- 92
2020-11-05 15:00:00 14.3 8 Sudeste 19 Sudeste 9.4 -- -- 98
2020-11-05 14:00:00 13.7 0 Calma 16 Norte 5.2 -- -- 98
2020-11-05 13:00:00 14.3 5 Nordeste 20 Oeste 12 -- -- 98
2020-11-05 12:00:00 14.5 8 Oeste 14 Oeste 2.4 -- -- 97
2020-11-05 11:00:00 14.6 6 Este 17 Este 0.6 -- -- 96
2020-11-05 10:00:00 14.4 9 Este 21 Este 0.6 -- -- 96
2020-11-05 09:00:00 14.2 10 Nordeste 15 Nordeste 2.4 -- -- 96
2020-11-05 08:00:00 14.5 8 Sudoeste 23 Este 0.4 -- -- 93
2020-11-05 07:00:00 14.5 12 Este 23 Sudeste 0 -- -- 92
2020-11-05 06:00:00 14.4 14 Este 25 Este 0 -- -- 93
2020-11-05 05:00:00 14.3 12 Este 22 Este 0.2 -- -- 95
2020-11-05 04:00:00 14.2 12 Este 23 Nordeste 1.4 -- -- 97
2020-11-05 03:00:00 14.1 15 Este 24 Nordeste 4 -- -- 96
2020-11-05 02:00:00 14.6 15 Este 28 Este 4.4 -- -- 94
2020-11-05 01:00:00 15.3 15 Este 27 Este 0 -- -- 87
2020-11-05 00:00:00 15.3 15 Este 23 Este 0 -- -- 85
2020-11-04 23:00:00 14.9 12 Este 22 Este 0 -- -- 85
2020-11-04 22:00:00 14.6 11 Este 16 Este 0 -- -- 89
2020-11-04 21:00:00 15.1 10 Este 16 Este 0 -- -- 88
2020-11-04 20:00:00 15.5 7 Este 18 Este 0 -- -- 87
2020-11-04 19:00:00 16.8 12 Este 22 Este 0 -- -- 80
2020-11-04 18:00:00 17.6 10 Este 22 Este 0 -- -- 79
2020-11-04 17:00:00 18.2 8 Este 20 Este 0 -- -- 80
2020-11-04 16:00:00 18.4 10 Este 19 Nordeste 0 -- -- 77
2020-11-04 15:00:00 18.8 9 Nordeste 13 Nordeste 0 -- -- 79
2020-11-04 14:00:00 18.6 8 Oeste 15 Este 0.2 -- -- 79
2020-11-04 13:00:00 18.9 11 Sudeste 17 Este 0 -- -- 78
2020-11-04 12:00:00 16.3 8 Este 14 Este 0 -- -- 90
2020-11-04 11:00:00 16 11 Sudeste 27 Sudeste 0.8 -- -- 90
2020-11-04 10:00:00 15.3 13 Sudeste 20 Sudeste 0.2 -- -- 89
2020-11-04 09:00:00 14.6 5 Este 11 Sudeste 0 -- -- 91
2020-11-04 08:00:00 13.7 5 Este 8 Este 0 -- -- 92
2020-11-04 07:00:00 14.3 4 Sudeste 9 Este 0 -- -- 89
2020-11-04 06:00:00 14.4 3 Este 6 Sudeste 0 -- -- 93
2020-11-04 05:00:00 14.8 3 Este 8 Nordeste 0 -- -- 92
2020-11-04 04:00:00 15.5 2 Norte 7 Sudeste 0 -- -- 87
2020-11-04 03:00:00 16.6 3 Este 16 Este 0 -- -- 79
2020-11-04 02:00:00 17.1 4 Nordeste 6 Nordeste 0 -- -- 78
2020-11-04 01:00:00 17.4 0 Calma 12 Nordeste 0.2 -- -- 75
2020-11-04 00:00:00 18.2 3 Noroeste 10 Noroeste 0 -- -- 67
2020-11-03 23:00:00 18.2 0 Calma 6 Noroeste 0 -- -- 65
2020-11-03 22:00:00 18.9 0 Calma 21 Nordeste 0 -- -- 63
2020-11-03 21:00:00 19.2 13 Norte 20 Noroeste 0 -- -- 65
2020-11-03 20:00:00 19.5 10 Noroeste 21 Noroeste 0 -- -- 66
2020-11-03 19:00:00 20.2 13 Noroeste 24 Noroeste 0 -- -- 65
2020-11-03 18:00:00 21.7 9 Noroeste 17 Noroeste 0 -- -- 62
2020-11-03 17:00:00 23.5 7 Noroeste 14 Oeste 0 -- -- 52
2020-11-03 16:00:00 24.1 7 Oeste 13 Oeste 0 -- -- 51
2020-11-03 15:00:00 24.1 4 Oeste 8 Noroeste 0 -- -- 49
2020-11-03 14:00:00 23.8 4 Oeste 8 Oeste 0 -- -- 49
2020-11-03 13:00:00 21.8 5 Nordeste 11 Este 0 -- -- 51
2020-11-03 12:00:00 20.2 6 Este 12 Este 0 -- -- 56
2020-11-03 11:00:00 19.1 8 Este 13 Nordeste 0 -- -- 58
2020-11-03 10:00:00 16.8 10 Este 14 Este 0 -- -- 63
2020-11-03 09:00:00 14.9 5 Sudeste 13 Sudeste 0 -- -- 72
2020-11-03 08:00:00 12.2 2 Nordeste 13 Sudeste 0 -- -- 84
2020-11-03 07:00:00 11.8 6 Este 11 Este 0 -- -- 85
2020-11-03 06:00:00 12.6 6 Sudeste 9 Este 0 -- -- 83
2020-11-03 05:00:00 13 3 Este 7 Nordeste 0 -- -- 84
2020-11-03 04:00:00 13.7 5 Sudeste 6 Sudeste 0 -- -- 78
2020-11-03 03:00:00 14.3 0 Calma 6 Norte 0 -- -- 78
2020-11-03 02:00:00 15.2 0 Calma 8 Noroeste 0 -- -- 77
2020-11-03 01:00:00 16.8 5 Noroeste 9 Noroeste 0 -- -- 73
2020-11-03 00:00:00 18.3 6 Norte 13 Norte 0 -- -- 67
2020-11-02 23:00:00 18.1 5 Norte 10 Norte 0 -- -- 61
2020-11-02 22:00:00 18 4 Noroeste 8 Noroeste 0 -- -- 57
2020-11-02 21:00:00 17.9 3 Norte 7 Noroeste 0 -- -- 54
2020-11-02 20:00:00 19.4 0 Calma 3 Oeste 0 -- -- 45
2020-11-02 19:00:00 21.8 0 Calma 3 Sur 0 -- -- 38
2020-11-02 18:00:00 25.6 2 Sudoeste 4 Sur 0 -- -- 29
2020-11-02 17:00:00 27.7 2 Sur 5 Nordeste 0 -- -- 22
2020-11-02 16:00:00 27.5 0 Calma 8 Este 0 -- -- 26
2020-11-02 15:00:00 26.7 5 Nordeste 14 Nordeste 0 -- -- 30
2020-11-02 14:00:00 25.3 10 Nordeste 16 Este 0 -- -- 33
2020-11-02 13:00:00 23.4 12 Nordeste 21 Nordeste 0 -- -- 38
2020-11-02 12:00:00 21.4 14 Este 24 Este 0 -- -- 46
2020-11-02 11:00:00 18.5 9 Nordeste 18 Este 0 -- -- 57
2020-11-02 10:00:00 16.4 10 Este 17 Este 0 -- -- 65
2020-11-02 09:00:00 13.7 8 Este 13 Nordeste 0 -- -- 84
2020-11-02 08:00:00 11.1 3 Nordeste 9 Este 0 -- -- 93
2020-11-02 07:00:00 11.5 7 Este 11 Este 0 -- -- 91
2020-11-02 06:00:00 11.7 6 Este 10 Este 0 -- -- 90
2020-11-02 05:00:00 12.5 5 Este 10 Este 0 -- -- 86
2020-11-02 04:00:00 13.4 8 Este 12 Este 0 -- -- 83
2020-11-02 03:00:00 13.9 6 Este 11 Nordeste 0 -- -- 78
2020-11-02 02:00:00 14.9 7 Este 11 Este 0 -- -- 72
2020-11-02 01:00:00 15.2 8 Este 12 Este 0 -- -- 73
2020-11-02 00:00:00 15.2 5 Este 8 Nordeste 0 -- -- 71
2020-11-01 23:00:00 16.2 2 Este 5 Sudeste 0 -- -- 68
2020-11-01 22:00:00 16.8 3 Este 6 Sudeste 0 -- -- 70
2020-11-01 21:00:00 17.8 0 Calma 5 Este 0 -- -- 66
2020-11-01 20:00:00 18.8 4 Este 5 Este 0 -- -- 62
2020-11-01 19:00:00 21.5 0 Calma 3 Norte 0 -- -- 52
2020-11-01 18:00:00 24.7 0 Calma 4 Sur 0 -- -- 38
2020-11-01 17:00:00 27.3 3 Sur 5 Sur 0 -- -- 32
2020-11-01 16:00:00 27 0 Calma 8 Este 0 -- -- 31
2020-11-01 15:00:00 26.4 3 Este 11 Nordeste 0 -- -- 35
2020-11-01 14:00:00 25.3 4 Este 10 Nordeste 0 -- -- 40
2020-11-01 13:00:00 23.4 7 Este 14 Este 0 -- -- 44
2020-11-01 12:00:00 21.3 8 Este 14 Este 0 -- -- 50
2020-11-01 11:00:00 18.9 8 Nordeste 14 Nordeste 0 -- -- 56
2020-11-01 10:00:00 16.2 9 Este 17 Nordeste 0 -- -- 66
2020-11-01 09:00:00 13.8 8 Este 11 Este 0 -- -- 81
2020-11-01 08:00:00 11.7 6 Este 10 Este 0 -- -- 90
2020-11-01 07:00:00 11.5 6 Este 9 Nordeste 0 -- -- 91
2020-11-01 06:00:00 11.5 6 Este 11 Este 0 -- -- 88
2020-11-01 05:00:00 11.6 8 Este 12 Este 0 -- -- 88
2020-11-01 04:00:00 12.6 5 Este 7 Este 0 -- -- 81
2020-11-01 03:00:00 12.8 4 Este 10 Este 0 -- -- 78
2020-11-01 02:00:00 12.9 8 Este 11 Este 0 -- -- 78
2020-11-01 01:00:00 14.2 3 Sudeste 13 Sudeste 0 -- -- 70
2020-11-01 00:00:00 14 0 Calma 9 Sudeste 0 -- -- 73
2020-10-31 23:00:00 14.9 0 Calma 5 Sudeste 0 -- -- 67
2020-10-31 22:00:00 16.7 4 Oeste 6 Oeste 0 -- -- 58
2020-10-31 21:00:00 17.5 0 Calma 4 Oeste 0 -- -- 56
2020-10-31 20:00:00 19.4 3 Oeste 6 Oeste 0 -- -- 48
2020-10-31 19:00:00 21.5 5 Oeste 9 Oeste 0 -- -- 43
2020-10-31 18:00:00 25 4 Sudoeste 8 Oeste 0 -- -- 33
2020-10-31 17:00:00 27 6 Oeste 10 Oeste 0 -- -- 29
2020-10-31 16:00:00 26.7 5 Oeste 10 Sudoeste 0 -- -- 30
2020-10-31 15:00:00 25.9 4 Noroeste 7 Este 0 -- -- 33
2020-10-31 14:00:00 25.4 4 Sur 9 Este 0 -- -- 33
2020-10-31 13:00:00 23.7 5 Sudeste 12 Este 0 -- -- 38
2020-10-31 12:00:00 21.6 6 Nordeste 17 Este 0 -- -- 47
2020-10-31 11:00:00 18.9 12 Nordeste 19 Este 0 -- -- 56
2020-10-31 10:00:00 16.1 7 Nordeste 13 Nordeste 0 -- -- 69
2020-10-31 09:00:00 13.8 5 Este 9 Este 0 -- -- 85
2020-10-31 08:00:00 11.5 6 Este 11 Este 0 -- -- 92
2020-10-31 07:00:00 11.7 8 Este 10 Este 0 -- -- 91
2020-10-31 06:00:00 12 9 Este 12 Este 0 -- -- 91
2020-10-31 05:00:00 12.6 7 Este 10 Este 0 -- -- 83
2020-10-31 04:00:00 13.3 5 Este 10 Este 0 -- -- 74
2020-10-31 03:00:00 14 5 Este 11 Nordeste 0 -- -- 71
2020-10-31 02:00:00 14.2 6 Este 9 Este 0 -- -- 72
2020-10-31 01:00:00 15.2 3 Este 9 Sudeste 0 -- -- 69
2020-10-31 00:00:00 14.9 5 Sudeste 7 Este 0 -- -- 74
2020-10-30 23:00:00 15.7 2 Sudeste 7 Sudeste 0 -- -- 73
2020-10-30 22:00:00 16.5 5 Sudeste 7 Sudeste 0 -- -- 66
2020-10-30 21:00:00 16.9 2 Nordeste 5 Este 0 -- -- 65
2020-10-30 20:00:00 17.6 5 Este 10 Este 0 -- -- 64
2020-10-30 19:00:00 20.1 0 Calma 5 Noroeste 0 -- -- 51
2020-10-30 18:00:00 22.9 0 Calma 5 Norte 0 -- -- 47
2020-10-30 17:00:00 25.1 4 Norte 9 Nordeste 0 -- -- 35
2020-10-30 16:00:00 25.2 5 Este 14 Este 0 -- -- 34
2020-10-30 15:00:00 26.3 7 Este 15 Este 0 -- -- 34
2020-10-30 14:00:00 25.4 9 Este 17 Este 0 -- -- 36
2020-10-30 13:00:00 23.7 9 Este 24 Este 0 -- -- 48
2020-10-30 12:00:00 21.8 17 Este 26 Este 0 -- -- 53
2020-10-30 11:00:00 19.7 14 Este 23 Este 0 -- -- 62
2020-10-30 10:00:00 16.2 7 Este 19 Este 0 -- -- 76
2020-10-30 09:00:00 13.7 10 Nordeste 20 Este 0 -- -- 84
2020-10-30 08:00:00 11.3 5 Este 12 Este 0 -- -- 94
2020-10-30 07:00:00 10.8 5 Este 10 Este 0 -- -- 92
2020-10-30 06:00:00 11.6 5 Este 13 Nordeste 0 -- -- 88
2020-10-30 05:00:00 12 7 Este 10 Este 0 -- -- 87
2020-10-30 04:00:00 12.3 4 Este 10 Este 0 -- -- 84
2020-10-30 03:00:00 13.3 5 Este 9 Este 0 -- -- 80
2020-10-30 02:00:00 13.5 4 Este 10 Este 0 -- -- 81
2020-10-30 01:00:00 13.3 6 Este 9 Este 0 -- -- 79
2020-10-30 00:00:00 14.7 6 Este 11 Nordeste 0 -- -- 69